sensor_id;sensor_type;location;lat;lon;timestamp;pressure;altitude;pressure_sealevel;temperature;humidity
3524;BME280;1776;53.330;11.498;2022-10-31T00:01:47;53922.66;;;-147.39;69.10
3524;BME280;1776;53.330;11.498;2022-10-31T00:04:12;53937.00;;;-147.39;69.17
3524;BME280;1776;53.330;11.498;2022-10-31T00:06:37;53902.19;;;-147.39;69.13
3524;BME280;1776;53.330;11.498;2022-10-31T00:09:04;53918.56;;;-147.39;68.72
3524;BME280;1776;53.330;11.498;2022-10-31T00:11:30;53930.84;;;-147.39;68.26
3524;BME280;1776;53.330;11.498;2022-10-31T00:13:57;53912.41;;;-147.39;68.22
3524;BME280;1776;53.330;11.498;2022-10-31T00:16:24;53926.75;;;-147.39;68.06
3524;BME280;1776;53.330;11.498;2022-10-31T00:18:56;53957.50;;;-147.39;68.27
3524;BME280;1776;53.330;11.498;2022-10-31T00:21:22;53922.66;;;-147.39;69.20
3524;BME280;1776;53.330;11.498;2022-10-31T00:23:48;53943.16;;;-147.39;69.25
3524;BME280;1776;53.330;11.498;2022-10-31T00:26:13;53945.19;;;-147.39;69.30
3524;BME280;1776;53.330;11.498;2022-10-31T00:28:39;53957.50;;;-147.39;69.59
3524;BME280;1776;53.330;11.498;2022-10-31T00:31:07;53932.91;;;-147.39;69.90
3524;BME280;1776;53.330;11.498;2022-10-31T00:33:34;53947.25;;;-147.39;71.28
3524;BME280;1776;53.330;11.498;2022-10-31T00:36:02;53945.19;;;-147.39;72.50
3524;BME280;1776;53.330;11.498;2022-10-31T00:38:27;53953.41;;;-147.39;71.83
3524;BME280;1776;53.330;11.498;2022-10-31T00:40:52;53943.16;;;-147.39;71.57
3524;BME280;1776;53.330;11.498;2022-10-31T00:43:18;53965.69;;;-147.39;71.19
3524;BME280;1776;53.330;11.498;2022-10-31T00:45:43;53961.59;;;-147.39;71.29
3524;BME280;1776;53.330;11.498;2022-10-31T00:48:09;53937.00;;;-147.39;71.65
3524;BME280;1776;53.330;11.498;2022-10-31T00:50:34;53932.91;;;-147.39;72.41
3524;BME280;1776;53.330;11.498;2022-10-31T00:52:59;53941.09;;;-147.39;72.78
3524;BME280;1776;53.330;11.498;2022-10-31T00:55:25;53988.22;;;-147.39;74.63
3524;BME280;1776;53.330;11.498;2022-10-31T00:57:50;53957.50;;;-147.39;74.51
3524;BME280;1776;53.330;11.498;2022-10-31T01:00:15;53941.09;;;-147.39;75.16
3524;BME280;1776;53.330;11.498;2022-10-31T01:02:41;53967.72;;;-147.39;74.70
3524;BME280;1776;53.330;11.498;2022-10-31T01:05:07;53967.72;;;-147.39;74.75
3524;BME280;1776;53.330;11.498;2022-10-31T01:07:36;53996.41;;;-147.39;75.52
3524;BME280;1776;53.330;11.498;2022-10-31T01:10:01;53949.28;;;-147.39;75.30
3524;BME280;1776;53.330;11.498;2022-10-31T01:12:27;53945.19;;;-147.39;75.16
3524;BME280;1776;53.330;11.498;2022-10-31T01:14:52;53953.41;;;-147.39;75.07
3524;BME280;1776;53.330;11.498;2022-10-31T01:17:17;53945.19;;;-147.39;75.75
3524;BME280;1776;53.330;11.498;2022-10-31T01:19:43;53920.63;;;-147.39;76.31
3524;BME280;1776;53.330;11.498;2022-10-31T01:22:08;53971.84;;;-147.39;76.42
3524;BME280;1776;53.330;11.498;2022-10-31T01:24:33;53951.34;;;-147.39;76.86
3524;BME280;1776;53.330;11.498;2022-10-31T01:26:59;53949.28;;;-147.39;77.25
3524;BME280;1776;53.330;11.498;2022-10-31T01:29:24;53969.78;;;-147.39;77.07
3524;BME280;1776;53.330;11.498;2022-10-31T01:31:49;53971.84;;;-147.39;77.26
3524;BME280;1776;53.330;11.498;2022-10-31T01:34:16;53982.06;;;-147.39;77.01
3524;BME280;1776;53.330;11.498;2022-10-31T01:36:42;53961.59;;;-147.39;76.67
3524;BME280;1776;53.330;11.498;2022-10-31T01:39:10;53926.75;;;-147.39;75.93
3524;BME280;1776;53.330;11.498;2022-10-31T01:41:38;53980.03;;;-147.39;75.69
3524;BME280;1776;53.330;11.498;2022-10-31T01:46:48;53926.75;;;-147.39;74.59
3524;BME280;1776;53.330;11.498;2022-10-31T01:49:22;53955.44;;;-147.39;74.13
3524;BME280;1776;53.330;11.498;2022-10-31T01:51:53;53957.50;;;-147.39;74.28
3524;BME280;1776;53.330;11.498;2022-10-31T01:54:21;53980.03;;;-147.39;73.85
3524;BME280;1776;53.330;11.498;2022-10-31T01:56:50;53965.69;;;-147.39;73.46
3524;BME280;1776;53.330;11.498;2022-10-31T01:59:20;53918.56;;;-147.39;73.51
3524;BME280;1776;53.330;11.498;2022-10-31T02:01:47;53969.78;;;-147.39;73.73
3524;BME280;1776;53.330;11.498;2022-10-31T02:04:14;53967.72;;;-147.39;73.67
3524;BME280;1776;53.330;11.498;2022-10-31T02:06:47;53943.16;;;-147.39;74.49
3524;BME280;1776;53.330;11.498;2022-10-31T02:09:15;53969.78;;;-147.39;74.41
3524;BME280;1776;53.330;11.498;2022-10-31T02:11:42;53928.81;;;-147.39;74.30
3524;BME280;1776;53.330;11.498;2022-10-31T02:14:08;53957.50;;;-147.39;74.01
3524;BME280;1776;53.330;11.498;2022-10-31T02:16:33;53975.94;;;-147.39;73.59
3524;BME280;1776;53.330;11.498;2022-10-31T02:18:58;53957.50;;;-147.39;73.10
3524;BME280;1776;53.330;11.498;2022-10-31T02:24:31;53943.16;;;-147.39;72.54
3524;BME280;1776;53.330;11.498;2022-10-31T02:27:59;53965.69;;;-147.39;72.12
3524;BME280;1776;53.330;11.498;2022-10-31T02:30:07;53939.06;;;-147.39;71.88
3524;BME280;1776;53.330;11.498;2022-10-31T02:38:03;53977.97;;;-147.39;71.64
3524;BME280;1776;53.330;11.498;2022-10-31T02:43:05;53945.19;;;-147.39;71.44
3524;BME280;1776;53.330;11.498;2022-10-31T02:45:46;53953.41;;;-147.39;71.20
3524;BME280;1776;53.330;11.498;2022-10-31T02:48:19;53955.44;;;-147.39;71.06
3524;BME280;1776;53.330;11.498;2022-10-31T02:51:04;53930.84;;;-147.39;71.13
3524;BME280;1776;53.330;11.498;2022-10-31T02:53:33;53918.56;;;-147.39;70.99
3524;BME280;1776;53.330;11.498;2022-10-31T02:56:06;53977.97;;;-147.39;70.96
3524;BME280;1776;53.330;11.498;2022-10-31T02:58:37;53971.84;;;-147.39;71.29
3524;BME280;1776;53.330;11.498;2022-10-31T03:01:31;53959.53;;;-147.39;71.27
3524;BME280;1776;53.330;11.498;2022-10-31T03:06:56;53971.84;;;-147.39;71.55
3524;BME280;1776;53.330;11.498;2022-10-31T03:12:09;53977.97;;;-147.39;72.00
3524;BME280;1776;53.330;11.498;2022-10-31T03:14:41;53988.22;;;-147.39;72.38
3524;BME280;1776;53.330;11.498;2022-10-31T03:17:12;53955.44;;;-147.39;72.39
3524;BME280;1776;53.330;11.498;2022-10-31T03:19:43;53980.03;;;-147.39;71.98
3524;BME280;1776;53.330;11.498;2022-10-31T03:22:20;53945.19;;;-147.39;71.97
3524;BME280;1776;53.330;11.498;2022-10-31T03:24:46;53961.59;;;-147.39;71.92
3524;BME280;1776;53.330;11.498;2022-10-31T03:27:18;53998.47;;;-147.39;71.82
3524;BME280;1776;53.330;11.498;2022-10-31T03:29:47;53937.00;;;-147.39;71.76
3524;BME280;1776;53.330;11.498;2022-10-31T03:32:25;53975.94;;;-147.39;71.74
3524;BME280;1776;53.330;11.498;2022-10-31T03:34:55;53965.69;;;-147.39;72.22
3524;BME280;1776;53.330;11.498;2022-10-31T03:37:22;53986.19;;;-147.39;72.37
3524;BME280;1776;53.330;11.498;2022-10-31T03:39:50;53959.53;;;-147.39;72.68
3524;BME280;1776;53.330;11.498;2022-10-31T03:42:24;53984.13;;;-147.39;72.89
3524;BME280;1776;53.330;11.498;2022-10-31T03:44:59;53982.06;;;-147.39;73.33
3524;BME280;1776;53.330;11.498;2022-10-31T03:47:26;53977.97;;;-147.39;73.58
3524;BME280;1776;53.330;11.498;2022-10-31T03:49:52;53947.25;;;-147.39;73.82
3524;BME280;1776;53.330;11.498;2022-10-31T03:52:38;53937.00;;;-147.39;73.77
3524;BME280;1776;53.330;11.498;2022-10-31T03:55:12;53986.19;;;-147.39;74.08
3524;BME280;1776;53.330;11.498;2022-10-31T03:57:45;53973.88;;;-147.39;73.77
3524;BME280;1776;53.330;11.498;2022-10-31T04:00:14;53975.94;;;-147.39;74.21
3524;BME280;1776;53.330;11.498;2022-10-31T04:02:46;53930.84;;;-147.39;74.15
3524;BME280;1776;53.330;11.498;2022-10-31T04:05:15;53943.16;;;-147.39;74.09
3524;BME280;1776;53.330;11.498;2022-10-31T04:07:45;53977.97;;;-147.39;74.15
3524;BME280;1776;53.330;11.498;2022-10-31T04:10:13;53967.72;;;-147.39;74.01
3524;BME280;1776;53.330;11.498;2022-10-31T04:12:42;53988.22;;;-147.39;74.34
3524;BME280;1776;53.330;11.498;2022-10-31T04:15:09;53943.16;;;-147.39;74.01
3524;BME280;1776;53.330;11.498;2022-10-31T04:17:39;53963.63;;;-147.39;74.03
3524;BME280;1776;53.330;11.498;2022-10-31T04:20:05;53945.19;;;-147.39;74.65
3524;BME280;1776;53.330;11.498;2022-10-31T04:22:31;53967.72;;;-147.39;74.56
3524;BME280;1776;53.330;11.498;2022-10-31T04:24:56;53930.84;;;-147.39;74.99
3524;BME280;1776;53.330;11.498;2022-10-31T04:27:21;53996.41;;;-147.39;74.87
3524;BME280;1776;53.330;11.498;2022-10-31T04:29:47;53994.38;;;-147.39;74.67
3524;BME280;1776;53.330;11.498;2022-10-31T04:32:12;53957.50;;;-147.39;74.47
3524;BME280;1776;53.330;11.498;2022-10-31T04:34:37;53988.22;;;-147.39;74.44
3524;BME280;1776;53.330;11.498;2022-10-31T04:37:02;53957.50;;;-147.39;74.16
3524;BME280;1776;53.330;11.498;2022-10-31T04:39:28;53965.69;;;-147.39;73.85
3524;BME280;1776;53.330;11.498;2022-10-31T04:41:53;53965.69;;;-147.39;73.63
3524;BME280;1776;53.330;11.498;2022-10-31T04:44:18;53994.38;;;-147.39;73.48
3524;BME280;1776;53.330;11.498;2022-10-31T04:46:43;53947.25;;;-147.39;73.35
3524;BME280;1776;53.330;11.498;2022-10-31T04:49:09;53928.81;;;-147.39;73.40
3524;BME280;1776;53.330;11.498;2022-10-31T04:51:34;53977.97;;;-147.39;73.21
3524;BME280;1776;53.330;11.498;2022-10-31T04:53:59;53932.91;;;-147.39;73.29
3524;BME280;1776;53.330;11.498;2022-10-31T04:56:25;53924.72;;;-147.39;72.77
3524;BME280;1776;53.330;11.498;2022-10-31T04:58:50;53967.72;;;-147.39;73.15
3524;BME280;1776;53.330;11.498;2022-10-31T05:01:15;53955.44;;;-147.39;72.80
3524;BME280;1776;53.330;11.498;2022-10-31T05:03:40;53953.41;;;-147.39;72.87
3524;BME280;1776;53.330;11.498;2022-10-31T05:06:06;53988.22;;;-147.39;72.73
3524;BME280;1776;53.330;11.498;2022-10-31T05:08:32;53951.34;;;-147.39;72.94
3524;BME280;1776;53.330;11.498;2022-10-31T05:11:01;53961.59;;;-147.39;73.06
3524;BME280;1776;53.330;11.498;2022-10-31T05:13:27;53951.34;;;-147.39;73.72
3524;BME280;1776;53.330;11.498;2022-10-31T05:15:52;53965.69;;;-147.39;73.54
3524;BME280;1776;53.330;11.498;2022-10-31T05:18:17;53951.34;;;-147.39;74.31
3524;BME280;1776;53.330;11.498;2022-10-31T05:20:43;53939.06;;;-147.39;74.79
3524;BME280;1776;53.330;11.498;2022-10-31T05:23:08;53939.06;;;-147.39;75.68
3524;BME280;1776;53.330;11.498;2022-10-31T05:25:33;53947.25;;;-147.39;76.08
3524;BME280;1776;53.330;11.498;2022-10-31T05:27:58;53951.34;;;-147.39;77.34
3524;BME280;1776;53.330;11.498;2022-10-31T05:30:29;53986.19;;;-147.39;78.16
3524;BME280;1776;53.330;11.498;2022-10-31T05:32:55;53941.09;;;-147.39;79.05
3524;BME280;1776;53.330;11.498;2022-10-31T05:35:29;54051.75;;;-147.39;80.22
3524;BME280;1776;53.330;11.498;2022-10-31T05:37:55;53945.19;;;-147.39;80.70
3524;BME280;1776;53.330;11.498;2022-10-31T05:40:21;53939.06;;;-147.39;80.97
3524;BME280;1776;53.330;11.498;2022-10-31T05:42:49;53922.66;;;-147.39;80.87
3524;BME280;1776;53.330;11.498;2022-10-31T05:45:17;53932.91;;;-147.39;81.23
3524;BME280;1776;53.330;11.498;2022-10-31T05:47:49;53947.25;;;-147.39;81.45
3524;BME280;1776;53.330;11.498;2022-10-31T05:50:14;53953.41;;;-147.39;81.37
3524;BME280;1776;53.330;11.498;2022-10-31T05:52:39;53961.59;;;-147.39;81.59
3524;BME280;1776;53.330;11.498;2022-10-31T05:55:05;53957.50;;;-147.39;81.04
3524;BME280;1776;53.330;11.498;2022-10-31T05:57:31;53957.50;;;-147.39;81.04
3524;BME280;1776;53.330;11.498;2022-10-31T05:59:57;53922.66;;;-147.39;81.31
3524;BME280;1776;53.330;11.498;2022-10-31T06:02:22;53941.09;;;-147.39;81.35
3524;BME280;1776;53.330;11.498;2022-10-31T06:04:48;53920.63;;;-147.39;81.21
3524;BME280;1776;53.330;11.498;2022-10-31T06:07:13;53924.72;;;-147.39;80.77
3524;BME280;1776;53.330;11.498;2022-10-31T06:09:38;53924.72;;;-147.39;80.26
3524;BME280;1776;53.330;11.498;2022-10-31T06:12:03;53922.66;;;-147.39;80.66
3524;BME280;1776;53.330;11.498;2022-10-31T06:14:29;53965.69;;;-147.39;81.10
3524;BME280;1776;53.330;11.498;2022-10-31T06:16:55;53955.44;;;-147.39;80.96
3524;BME280;1776;53.330;11.498;2022-10-31T06:19:20;53939.06;;;-147.39;80.49
3524;BME280;1776;53.330;11.498;2022-10-31T06:21:46;53926.75;;;-147.39;80.70
3524;BME280;1776;53.330;11.498;2022-10-31T06:24:11;53941.09;;;-147.39;80.85
3524;BME280;1776;53.330;11.498;2022-10-31T06:26:36;53949.28;;;-147.39;80.64
3524;BME280;1776;53.330;11.498;2022-10-31T06:29:01;53949.28;;;-147.39;80.50
3524;BME280;1776;53.330;11.498;2022-10-31T06:31:27;53924.72;;;-147.39;80.86
3524;BME280;1776;53.330;11.498;2022-10-31T06:33:52;53924.72;;;-147.39;80.90
3524;BME280;1776;53.330;11.498;2022-10-31T06:36:17;53943.16;;;-147.39;81.27
3524;BME280;1776;53.330;11.498;2022-10-31T06:38:42;53959.53;;;-147.39;81.27
3524;BME280;1776;53.330;11.498;2022-10-31T06:41:08;53953.41;;;-147.39;81.30
3524;BME280;1776;53.330;11.498;2022-10-31T06:43:33;53951.34;;;-147.39;81.38
3524;BME280;1776;53.330;11.498;2022-10-31T06:46:02;53928.81;;;-147.39;81.36
3524;BME280;1776;53.330;11.498;2022-10-31T06:48:28;53943.16;;;-147.39;80.94
3524;BME280;1776;53.330;11.498;2022-10-31T06:50:57;53926.75;;;-147.39;81.00
3524;BME280;1776;53.330;11.498;2022-10-31T06:53:22;53914.47;;;-147.39;80.96
3524;BME280;1776;53.330;11.498;2022-10-31T06:55:48;53908.31;;;-147.39;80.77
3524;BME280;1776;53.330;11.498;2022-10-31T06:58:13;53943.16;;;-147.39;80.50
3524;BME280;1776;53.330;11.498;2022-10-31T07:00:38;53928.81;;;-147.39;80.54
3524;BME280;1776;53.330;11.498;2022-10-31T07:03:06;53947.25;;;-147.39;80.25
3524;BME280;1776;53.330;11.498;2022-10-31T07:05:31;53959.53;;;-147.39;80.91
3524;BME280;1776;53.330;11.498;2022-10-31T07:07:59;53926.75;;;-147.39;80.93
3524;BME280;1776;53.330;11.498;2022-10-31T07:10:26;53912.41;;;-147.39;81.02
3524;BME280;1776;53.330;11.498;2022-10-31T07:12:59;53912.41;;;-147.39;80.17
3524;BME280;1776;53.330;11.498;2022-10-31T07:15:26;53920.63;;;-147.39;79.19
3524;BME280;1776;53.330;11.498;2022-10-31T07:17:52;53896.03;;;-147.39;77.55
3524;BME280;1776;53.330;11.498;2022-10-31T07:20:18;53898.06;;;-147.39;77.26
3524;BME280;1776;53.330;11.498;2022-10-31T07:22:43;53912.41;;;-147.39;76.68
3524;BME280;1776;53.330;11.498;2022-10-31T07:25:09;53891.94;;;-147.39;77.15
3524;BME280;1776;53.330;11.498;2022-10-31T07:27:42;53939.06;;;-147.39;77.78
3524;BME280;1776;53.330;11.498;2022-10-31T07:30:09;53904.22;;;-147.39;78.30
3524;BME280;1776;53.330;11.498;2022-10-31T07:32:42;53943.16;;;-147.39;78.72
3524;BME280;1776;53.330;11.498;2022-10-31T07:35:09;53918.56;;;-147.39;78.92
3524;BME280;1776;53.330;11.498;2022-10-31T07:37:35;53937.00;;;-147.39;79.14
3524;BME280;1776;53.330;11.498;2022-10-31T07:40:01;53920.63;;;-147.39;79.23
3524;BME280;1776;53.330;11.498;2022-10-31T07:42:27;53920.63;;;-147.39;79.37
3524;BME280;1776;53.330;11.498;2022-10-31T07:44:52;53943.16;;;-147.39;79.17
3524;BME280;1776;53.330;11.498;2022-10-31T07:47:17;53922.66;;;-147.39;79.53
3524;BME280;1776;53.330;11.498;2022-10-31T07:49:42;53945.19;;;-147.39;79.49
3524;BME280;1776;53.330;11.498;2022-10-31T07:52:08;53951.34;;;-147.39;79.81
3524;BME280;1776;53.330;11.498;2022-10-31T07:54:33;53924.72;;;-147.39;79.76
3524;BME280;1776;53.330;11.498;2022-10-31T07:56:58;53910.38;;;-147.39;79.97
3524;BME280;1776;53.330;11.498;2022-10-31T07:59:23;53945.19;;;-147.39;79.75
3524;BME280;1776;53.330;11.498;2022-10-31T08:01:50;53896.03;;;-147.39;80.32
3524;BME280;1776;53.330;11.498;2022-10-31T08:04:16;53920.63;;;-147.39;80.43
3524;BME280;1776;53.330;11.498;2022-10-31T08:06:41;53937.00;;;-147.39;80.25
3524;BME280;1776;53.330;11.498;2022-10-31T08:09:06;53945.19;;;-147.39;80.22
3524;BME280;1776;53.330;11.498;2022-10-31T08:11:31;53904.22;;;-147.39;80.68
3524;BME280;1776;53.330;11.498;2022-10-31T08:13:57;53920.63;;;-147.39;80.81
3524;BME280;1776;53.330;11.498;2022-10-31T08:16:22;53939.06;;;-147.39;80.97
3524;BME280;1776;53.330;11.498;2022-10-31T08:18:47;53939.06;;;-147.39;81.04
3524;BME280;1776;53.330;11.498;2022-10-31T08:21:12;53937.00;;;-147.39;80.85
3524;BME280;1776;53.330;11.498;2022-10-31T08:23:38;53910.38;;;-147.39;81.06
3524;BME280;1776;53.330;11.498;2022-10-31T08:26:03;53916.50;;;-147.39;80.68
3524;BME280;1776;53.330;11.498;2022-10-31T08:28:31;53926.75;;;-147.39;80.60
3524;BME280;1776;53.330;11.498;2022-10-31T08:30:57;53967.72;;;-147.39;80.65
3524;BME280;1776;53.330;11.498;2022-10-31T08:33:22;53937.00;;;-147.39;81.01
3524;BME280;1776;53.330;11.498;2022-10-31T08:35:48;53939.06;;;-147.39;80.69
3524;BME280;1776;53.330;11.498;2022-10-31T08:38:13;53920.63;;;-147.39;80.89
3524;BME280;1776;53.330;11.498;2022-10-31T08:40:39;53902.19;;;-147.39;80.83
3524;BME280;1776;53.330;11.498;2022-10-31T08:43:13;53994.38;;;-147.39;80.59
3524;BME280;1776;53.330;11.498;2022-10-31T08:45:39;53906.28;;;-147.39;80.36
3524;BME280;1776;53.330;11.498;2022-10-31T08:48:09;53885.78;;;-147.39;80.27
3524;BME280;1776;53.330;11.498;2022-10-31T08:50:35;53887.84;;;-147.39;79.90
3524;BME280;1776;53.330;11.498;2022-10-31T08:55:27;53943.16;;;-147.39;79.96
3524;BME280;1776;53.330;11.498;2022-10-31T08:57:58;53896.03;;;-147.39;79.77
3524;BME280;1776;53.330;11.498;2022-10-31T09:00:24;53898.06;;;-147.39;79.45
3524;BME280;1776;53.330;11.498;2022-10-31T09:03:00;53924.72;;;-147.39;79.51
3524;BME280;1776;53.330;11.498;2022-10-31T09:05:26;53924.72;;;-147.39;79.61
3524;BME280;1776;53.330;11.498;2022-10-31T09:07:55;53922.66;;;-147.39;79.30
3524;BME280;1776;53.330;11.498;2022-10-31T09:10:22;53924.72;;;-147.39;79.49
3524;BME280;1776;53.330;11.498;2022-10-31T09:12:47;53924.72;;;-147.39;79.60
3524;BME280;1776;53.330;11.498;2022-10-31T09:15:12;53887.84;;;-147.39;79.49
3524;BME280;1776;53.330;11.498;2022-10-31T09:17:38;53910.38;;;-147.39;79.53
3524;BME280;1776;53.330;11.498;2022-10-31T09:20:03;53908.31;;;-147.39;79.37
3524;BME280;1776;53.330;11.498;2022-10-31T09:22:28;53900.13;;;-147.39;79.62
3524;BME280;1776;53.330;11.498;2022-10-31T09:24:53;53908.31;;;-147.39;79.17
3524;BME280;1776;53.330;11.498;2022-10-31T09:27:19;53920.63;;;-147.39;79.45
3524;BME280;1776;53.330;11.498;2022-10-31T09:29:44;53945.19;;;-147.39;79.14
3524;BME280;1776;53.330;11.498;2022-10-31T09:32:09;53920.63;;;-147.39;78.93
3524;BME280;1776;53.330;11.498;2022-10-31T09:34:35;53928.81;;;-147.39;79.48
3524;BME280;1776;53.330;11.498;2022-10-31T09:37:00;53914.47;;;-147.39;79.39
3524;BME280;1776;53.330;11.498;2022-10-31T09:39:25;53914.47;;;-147.39;79.14
3524;BME280;1776;53.330;11.498;2022-10-31T09:44:58;53924.72;;;-147.39;79.14
3524;BME280;1776;53.330;11.498;2022-10-31T09:50:52;53914.47;;;-147.39;78.13
3524;BME280;1776;53.330;11.498;2022-10-31T09:53:27;53928.81;;;-147.39;78.00
3524;BME280;1776;53.330;11.498;2022-10-31T09:55:57;53908.31;;;-147.39;78.02
3524;BME280;1776;53.330;11.498;2022-10-31T09:58:25;53914.47;;;-147.39;77.59
3524;BME280;1776;53.330;11.498;2022-10-31T10:00:53;53926.75;;;-147.39;77.44
3524;BME280;1776;53.330;11.498;2022-10-31T10:03:40;53908.31;;;-147.39;77.11
3524;BME280;1776;53.330;11.498;2022-10-31T10:06:19;53893.97;;;-147.39;76.86
3524;BME280;1776;53.330;11.498;2022-10-31T10:08:47;53887.84;;;-147.39;76.38
3524;BME280;1776;53.330;11.498;2022-10-31T10:22:27;53893.97;;;-147.39;75.32
3524;BME280;1776;53.330;11.498;2022-10-31T10:25:15;53900.13;;;-147.39;74.91
3524;BME280;1776;53.330;11.498;2022-10-31T10:28:17;53914.47;;;-147.39;74.55
3524;BME280;1776;53.330;11.498;2022-10-31T10:30:48;53869.41;;;-147.39;74.25
3524;BME280;1776;53.330;11.498;2022-10-31T10:33:28;53877.59;;;-147.39;74.28
3524;BME280;1776;53.330;11.498;2022-10-31T10:35:59;53896.03;;;-147.39;74.11
3524;BME280;1776;53.330;11.498;2022-10-31T10:38:35;53955.44;;;-147.39;73.55
3524;BME280;1776;53.330;11.498;2022-10-31T10:41:05;53883.75;;;-147.39;73.50
3524;BME280;1776;53.330;11.498;2022-10-31T10:43:37;53877.59;;;-147.39;73.20
3524;BME280;1776;53.330;11.498;2022-10-31T10:49:04;53937.00;;;-147.39;72.70
3524;BME280;1776;53.330;11.498;2022-10-31T10:51:38;53898.06;;;-147.39;72.75
3524;BME280;1776;53.330;11.498;2022-10-31T10:57:16;53877.59;;;-147.39;73.22
3524;BME280;1776;53.330;11.498;2022-10-31T10:59:44;53877.59;;;-147.39;73.41
3524;BME280;1776;53.330;11.498;2022-10-31T11:02:22;53904.22;;;-147.39;73.27
3524;BME280;1776;53.330;11.498;2022-10-31T11:04:53;53885.78;;;-147.39;73.06
3524;BME280;1776;53.330;11.498;2022-10-31T11:07:19;53879.63;;;-147.39;72.67
3524;BME280;1776;53.330;11.498;2022-10-31T11:09:44;53887.84;;;-147.39;72.90
3524;BME280;1776;53.330;11.498;2022-10-31T11:12:21;53867.34;;;-147.39;72.76
3524;BME280;1776;53.330;11.498;2022-10-31T11:14:53;53906.28;;;-147.39;72.43
3524;BME280;1776;53.330;11.498;2022-10-31T11:17:36;53881.69;;;-147.39;72.62
3524;BME280;1776;53.330;11.498;2022-10-31T11:22:36;53875.53;;;-147.39;72.32
3524;BME280;1776;53.330;11.498;2022-10-31T11:25:20;53869.41;;;-147.39;72.49
3524;BME280;1776;53.330;11.498;2022-10-31T11:27:46;53877.59;;;-147.39;71.97
3524;BME280;1776;53.330;11.498;2022-10-31T11:30:13;53889.88;;;-147.39;71.80
3524;BME280;1776;53.330;11.498;2022-10-31T11:32:48;53875.53;;;-147.39;71.48
3524;BME280;1776;53.330;11.498;2022-10-31T11:35:17;53883.75;;;-147.39;71.57
3524;BME280;1776;53.330;11.498;2022-10-31T11:37:46;53850.97;;;-147.39;71.71
3524;BME280;1776;53.330;11.498;2022-10-31T11:40:18;53867.34;;;-147.39;71.33
3524;BME280;1776;53.330;11.498;2022-10-31T11:42:44;53867.34;;;-147.39;71.27
3524;BME280;1776;53.330;11.498;2022-10-31T11:47:50;53867.34;;;-147.39;70.92
3524;BME280;1776;53.330;11.498;2022-10-31T11:50:21;53924.72;;;-147.39;70.87
3524;BME280;1776;53.330;11.498;2022-10-31T11:52:49;53863.25;;;-147.39;70.67
3524;BME280;1776;53.330;11.498;2022-10-31T11:55:28;53848.91;;;-147.39;70.47
3524;BME280;1776;53.330;11.498;2022-10-31T11:57:55;53904.22;;;-147.39;70.74
3524;BME280;1776;53.330;11.498;2022-10-31T12:00:28;53861.19;;;-147.39;70.56
3524;BME280;1776;53.330;11.498;2022-10-31T12:03:20;53871.44;;;-147.39;70.77
3524;BME280;1776;53.330;11.498;2022-10-31T12:05:58;53863.25;;;-147.39;70.73
3524;BME280;1776;53.330;11.498;2022-10-31T12:08:29;53873.50;;;-147.39;70.81
3524;BME280;1776;53.330;11.498;2022-10-31T12:13:37;53910.38;;;-147.39;70.86
3524;BME280;1776;53.330;11.498;2022-10-31T12:19:19;53879.63;;;-147.39;71.46
3524;BME280;1776;53.330;11.498;2022-10-31T12:24:54;53898.06;;;-147.39;71.51
3524;BME280;1776;53.330;11.498;2022-10-31T12:33:27;53893.97;;;-147.39;71.65
3524;BME280;1776;53.330;11.498;2022-10-31T12:36:12;53893.97;;;-147.39;71.31
3524;BME280;1776;53.330;11.498;2022-10-31T12:39:05;53889.88;;;-147.39;71.69
3524;BME280;1776;53.330;11.498;2022-10-31T12:41:49;53889.88;;;-147.39;71.50
3524;BME280;1776;53.330;11.498;2022-10-31T12:47:22;53889.88;;;-147.39;71.42
3524;BME280;1776;53.330;11.498;2022-10-31T12:58:10;53863.25;;;-147.39;70.99
3524;BME280;1776;53.330;11.498;2022-10-31T13:00:42;53879.63;;;-147.39;70.89
3524;BME280;1776;53.330;11.498;2022-10-31T13:03:21;53873.50;;;-147.39;70.94
3524;BME280;1776;53.330;11.498;2022-10-31T13:05:54;53877.59;;;-147.39;70.79
3524;BME280;1776;53.330;11.498;2022-10-31T13:08:26;53867.34;;;-147.39;70.97
3524;BME280;1776;53.330;11.498;2022-10-31T13:13:35;53867.34;;;-147.39;70.29
3524;BME280;1776;53.330;11.498;2022-10-31T13:16:16;53898.06;;;-147.39;70.24
3524;BME280;1776;53.330;11.498;2022-10-31T13:18:50;53955.44;;;-147.39;70.26
3524;BME280;1776;53.330;11.498;2022-10-31T13:21:21;53883.75;;;-147.39;70.45
3524;BME280;1776;53.330;11.498;2022-10-31T13:23:49;53867.34;;;-147.39;70.62
3524;BME280;1776;53.330;11.498;2022-10-31T13:29:05;53879.63;;;-147.39;70.51
3524;BME280;1776;53.330;11.498;2022-10-31T13:31:34;53863.25;;;-147.39;70.79
3524;BME280;1776;53.330;11.498;2022-10-31T13:34:16;53863.25;;;-147.39;70.63
3524;BME280;1776;53.330;11.498;2022-10-31T13:37:00;53865.31;;;-147.39;70.67
3524;BME280;1776;53.330;11.498;2022-10-31T13:39:57;53863.25;;;-147.39;70.58
3524;BME280;1776;53.330;11.498;2022-10-31T13:45:20;53881.69;;;-147.39;70.51
3524;BME280;1776;53.330;11.498;2022-10-31T13:47:59;53883.75;;;-147.39;70.87
3524;BME280;1776;53.330;11.498;2022-10-31T13:50:28;53867.34;;;-147.39;70.56
3524;BME280;1776;53.330;11.498;2022-10-31T13:53:11;53871.44;;;-147.39;70.44
3524;BME280;1776;53.330;11.498;2022-10-31T13:55:46;53881.69;;;-147.39;70.43
3524;BME280;1776;53.330;11.498;2022-10-31T13:58:28;53875.53;;;-147.39;70.29
3524;BME280;1776;53.330;11.498;2022-10-31T14:01:21;53891.94;;;-147.39;70.11
3524;BME280;1776;53.330;11.498;2022-10-31T14:04:02;53896.03;;;-147.39;70.22
3524;BME280;1776;53.330;11.498;2022-10-31T14:06:41;53865.31;;;-147.39;70.65
3524;BME280;1776;53.330;11.498;2022-10-31T14:09:31;53881.69;;;-147.39;71.04
3524;BME280;1776;53.330;11.498;2022-10-31T14:12:00;53867.34;;;-147.39;70.82
3524;BME280;1776;53.330;11.498;2022-10-31T14:14:32;53891.94;;;-147.39;70.83
3524;BME280;1776;53.330;11.498;2022-10-31T14:16:59;53869.41;;;-147.39;70.92
3524;BME280;1776;53.330;11.498;2022-10-31T14:19:26;53871.44;;;-147.39;70.98
3524;BME280;1776;53.330;11.498;2022-10-31T14:21:51;53893.97;;;-147.39;71.46
3524;BME280;1776;53.330;11.498;2022-10-31T14:29:45;53861.19;;;-147.39;70.83
3524;BME280;1776;53.330;11.498;2022-10-31T14:34:42;53879.63;;;-147.39;70.77